Likely, CA

7:28 PM PDT on March 30, 2015 (GMT -0700)
Alturas Municipal | | Change Station
CLOSE
Current Station
Airport
Location: Alturas,
Elevation: 4373 ft
Nearby Weather Stations
Active Advisory: Special Statement

Elev 4373 ft 41.49 °N, 120.56 °W | Updated 33 minutes ago

Partly Cloudy
Partly Cloudy
66 °F
Feels Like 66 °F
N
14
Wind Variable Wind from West

Today
High -- | Low -- °F
--% Chance of Precip.
Yesterday
High -- | Low -- °F
Precip. -- in
6:48 AM 7:24 PM
Waxing Gibbous, 83% visible
Pressure 29.98 in
Visibility 10.0 miles
Clouds Clear
Dew Point 28 °F
Humidity 24%
Rainfall 0.00 in
Snow Depth Not available.
UV 0 out of 12
Pollen 11.80 out of 12
Air Quality Not available.
Flu Activity Not available.
METAR KAAT 310155Z AUTO 26012KT 10SM CLR 19/M02 A3002 RMK AO2 SLP150 T01891022

More Conditions Fewer Conditions

Pressure 29.98 in
Visibility 10.0 miles
Clouds Clear
Dew Point 28 °F
Humidity 24%
Rainfall 0.00 in
Snow Depth Not available.
UV 0 out of 12
Pollen 11.80 out of 12
Air Quality Not available.
Flu Activity Not available.
METAR KAAT 310155Z AUTO 26012KT 10SM CLR 19/M02 A3002 RMK AO2 SLP150 T01891022

More Conditions Fewer Conditions

10-Day Weather Forecast

Almanac

Astronomy

Mar. 30, 2015 Rise Set
Actual Time
Civil Twilight
Nautical Twilight
Astronomical Twilight
Moon
Length of Visible Light
Length of Day
Tomorrow will be .
, % of the Moon is Illuminated

Today's Extremes

State Highs State Lows

Community

WunderPhotos

Upload Photos

1,809,665 photos uploaded!

WunderBlogs® & News

Nearby

Air Quality

  Air Quality AQ Index Pollutant
Not available.

Snow Depth

Station Depth Elevation

Earthquake Activity

City Distance Mag. Time & Date
Minimum magnitude displayed is 2.5.

Coastal Water Temperatures

Place Temperature

Stations

Nearby Weather Stations

Station Location Temp. Windchill Dew Point Humidity Wind Precip. Elev Updated Type
                   
Special Statement
Statement as of 2:35 PM PDT on March 30, 2015

... Rapid change to colder weather Tuesday...

A potent Spring cold front will move across the area tonight into
Tuesday. Mild weather will give way to a much colder air mass
Tuesday that is expected to generally persist into next weekend.
High temperatures Tuesday will be 15-25 degrees lower than today.
The front will bring a period of light precipitation Tuesday with
snow levels dropping from around 9000 feet down to 4500 to 5500
feet. Snow amounts will be mostly an inch or less above 5000 feet.
Gusty westerly winds are expected Tuesday afternoon and evening.

A stretch of cold nights are expected Wednesday through Friday
mornings during which time temperatures may fall below 30
degrees... possibly harming sensitive plants or crops. Scattered
showers on Wednesday will occur with snow levels around 3500
feet... though little or no accumulation is expected.

Those who have outdoor plans... or have sensitive outdoor
plants... should stay tuned for additional updates regarding this
sharp change to colder weather.